Ana Sayfa
METAR-TAF:

METAR-TAF

Havaalanları :

Los Mochis, Meksika

Enlem: 25-41N, Boylam: 109-05W, yükseklik: 4 m

Güncel hava durumu gözlemi

Rapor saat 00:40 UTC de 8 saat ve 4 dakika önce yapıldı.
Rüzgar güney/güneybatıdan 12 kt
Sıcaklık 27°C
Nem 62%
Basınç 1008 hPa
Görüş mesafesi: 16.1 km
Açık gökyüzü

METAR: MMLM 250040Z 20012KT 10SM SKC 27/19 A2978 RMK HZY

Saat: 02:44 (08:44 UTC)

Tahmin

Rapor saat 04:27 UTC de 4 saat ve 17 dakika önce yapıldı.
Ayın 25'si saat 06 UTC'den ayın 26'si saat 06 UTC'ye kadar geçerli Tahmin
Rüzgar güney/güneybatıdan 5 kt
Görüş mesafesi: 10 km
25000 ft yükseklikte parçalı bulutlu
Ayın 25'si saat 1800 UTC'den
Rüzgar güney/güneybatıdan 15 kt
Görüş mesafesi: 10 km
25000 ft yükseklikte parçalı bulutlu
Ayın 26'si saat 0200 UTC'den
Rüzgar güneybatıdan 8 kt
Görüş mesafesi: 10 km
25000 ft yükseklikte parçalı bulutlu

TAF: MMLM 250427Z 2506/2606 20005KT P6SM SCT250 FM251800 20015KT P6SM SCT250 FM260200 22008KT P6SM SCT250

4.000'den fazla havaalanı için hava durumu gözlemleri ve tahminleri (METAR ve TAF raporları).

Kullanılabilir istasyonlar harita üzerinde sarı ve kırmızı noktalarla gösterilir.

İstasyonun adını görmek için fareyi noktanın üzerinde gezdirin.

Sonrasında hava gözlem ve tahminlerini görmek için tıklayın.

Haritayı değiştirmek için: yaklaştırmak için siyah artı işaretli yeşil düğmeye ve uzaklaştırmak için de eksi işaretli düğmeye hızla tıklayın; bitişik haritalar için yeşil okları kullanın.


METAR-TAF: